Bradley, ME (04411)

11:34 AM EST on November 24, 2014 (GMT -0500)
Essex St Hill | Change Station
CLOSE
Current Station
Personal Weather Station
Location: Bangor, ME
Elevation: 208 ft
Nearby Weather Stations

Elev 208 ft 44.82 °N, 68.77 °W | Updated 3 seconds ago

Rain
Rain
54.1 °F
Feels Like 54.1 °F
N
4.0
Wind Variable Wind from South
Gusts 9.0 mph

Today
High -- | Low -- °F
--% Chance of Precip.
Yesterday
High -- | Low -- °F
Precip. -- in
6:43 AM 3:58 PM
Waxing Crescent, 6% visible
Pressure 29.72 in
Visibility 2.0 miles
Clouds Overcast 1000 ft
Dew Point 53 °F
Humidity 95%
Rainfall 0.15 in
Snow Depth Not available.
UV 1 out of 12
Pollen .10 out of 12
Air Quality Not available.
Flu Activity Not available.
SPECI KBGR 241631Z 15017G24KT 2SM R15/5000VP6000FT RA BR OVC010 13/12 A2972 RMK AO2 PK WND 16027/1619 CIG 006V014 PRESFR P0005 T01280117

More Conditions Fewer Conditions

Pressure 29.72 in
Visibility 2.0 miles
Clouds Overcast 1000 ft
Dew Point 53 °F
Humidity 95%
Rainfall 0.15 in
Snow Depth Not available.
UV 1 out of 12
Pollen .10 out of 12
Air Quality Not available.
Flu Activity Not available.
SPECI KBGR 241631Z 15017G24KT 2SM R15/5000VP6000FT RA BR OVC010 13/12 A2972 RMK AO2 PK WND 16027/1619 CIG 006V014 PRESFR P0005 T01280117

More Conditions Fewer Conditions

10-Day Weather Forecast

Almanac

Astronomy

Nov. 24, 2014 Rise Set
Actual Time
Civil Twilight
Nautical Twilight
Astronomical Twilight
Moon
Length of Visible Light
Length of Day
Tomorrow will be .
, % of the Moon is Illuminated

Today's Extremes

State Highs State Lows

Community

WunderPhotos

Upload Photos

1,773,366 photos uploaded!

WunderBlogs® & News

Nearby

Air Quality

  Air Quality AQ Index Pollutant
Not available.

Snow Depth

Station Depth Elevation

Earthquake Activity

City Distance Mag. Time & Date
Minimum magnitude displayed is 2.5.

Coastal Water Temperatures

Place Temperature

Nearby Weather Stations